createdAt,value
2018-09-15T00:00:13.152Z,17.3
2018-09-15T00:00:39.288Z,17.3
2018-09-15T00:01:05.420Z,17.27
2018-09-15T00:01:31.553Z,17.36
2018-09-15T00:01:57.687Z,17.33
2018-09-15T00:02:23.824Z,17.31
2018-09-15T00:02:49.950Z,17.33
2018-09-15T00:03:16.081Z,17.12
2018-09-15T00:03:42.217Z,17.12
2018-09-15T00:04:08.348Z,17.09
2018-09-15T00:04:34.477Z,17.06
2018-09-15T00:05:00.609Z,16.97
2018-09-15T00:05:26.769Z,16.97
2018-09-15T00:05:52.901Z,17.05
2018-09-15T00:06:19.038Z,17.12
2018-09-15T00:06:45.168Z,17.12
2018-09-15T00:07:11.331Z,17.08
2018-09-15T00:07:37.466Z,17.23
2018-09-15T00:08:03.595Z,17.2
2018-09-15T00:08:29.758Z,17.2
2018-09-15T00:08:55.893Z,17.24
2018-09-15T00:09:22.027Z,17.16
2018-09-15T00:09:48.159Z,17.19
2018-09-15T00:10:14.287Z,17.22
2018-09-15T00:10:40.442Z,17.22
2018-09-15T00:11:06.575Z,17.23
2018-09-15T00:11:32.713Z,17.23
2018-09-15T00:11:58.846Z,17.29
2018-09-15T00:12:25.009Z,17.27
2018-09-15T00:12:51.145Z,17.3
2018-09-15T00:13:17.284Z,17.26
2018-09-15T00:13:43.414Z,17.36
2018-09-15T00:14:09.549Z,17.26
2018-09-15T00:14:35.677Z,17.22
2018-09-15T00:15:01.813Z,17.31
2018-09-15T00:15:27.971Z,17.26
2018-09-15T00:15:54.110Z,17.3
2018-09-15T00:16:20.265Z,17.26
2018-09-15T00:16:46.429Z,17.26
2018-09-15T00:17:12.585Z,17.2
2018-09-15T00:17:38.723Z,17.16
2018-09-15T00:18:04.861Z,17.16
2018-09-15T00:18:30.988Z,17.22
2018-09-15T00:18:57.129Z,17.16
2018-09-15T00:19:23.285Z,17.22
2018-09-15T00:19:49.415Z,17.09
2018-09-15T00:20:15.601Z,17.12
2018-09-15T00:20:41.730Z,17.06
2018-09-15T00:21:07.864Z,17.14
2018-09-15T00:21:34.002Z,17.22
2018-09-15T00:22:00.136Z,17.09
2018-09-15T00:22:26.314Z,17.04
2018-09-15T00:22:52.513Z,17.11
2018-09-15T00:23:18.601Z,17.12
2018-09-15T00:23:44.755Z,17.08
2018-09-15T00:24:10.914Z,17.09
2018-09-15T00:24:37.044Z,17.04
2018-09-15T00:25:03.181Z,16.94
2018-09-15T00:25:29.313Z,17.02
2018-09-15T00:25:55.448Z,17.05
2018-09-15T00:26:21.579Z,16.99
2018-09-15T00:26:47.707Z,17.11
2018-09-15T00:27:13.866Z,17.02
2018-09-15T00:27:40.028Z,16.99
2018-09-15T00:28:06.156Z,16.79
2018-09-15T00:28:32.295Z,16.93
2018-09-15T00:28:58.448Z,17.02
2018-09-15T00:29:24.607Z,17.04
2018-09-15T00:29:50.735Z,17.02
2018-09-15T00:30:16.864Z,16.9
2018-09-15T00:30:42.999Z,16.89
2018-09-15T00:31:09.141Z,16.78
2018-09-15T00:31:35.272Z,16.93
2018-09-15T00:32:01.402Z,16.86
2018-09-15T00:32:27.563Z,16.9
2018-09-15T00:32:53.690Z,16.76
2018-09-15T00:33:19.837Z,16.89
2018-09-15T00:33:45.984Z,16.86
2018-09-15T00:34:12.171Z,16.99
2018-09-15T00:34:38.299Z,17.06
2018-09-15T00:35:04.435Z,17.06
2018-09-15T00:35:30.562Z,16.96
2018-09-15T00:35:56.695Z,16.86
2018-09-15T00:36:22.832Z,16.87
2018-09-15T00:36:48.991Z,16.79
2018-09-15T00:37:15.142Z,16.81
2018-09-15T00:37:41.284Z,16.84
2018-09-15T00:38:07.422Z,16.81
2018-09-15T00:38:33.583Z,16.84
2018-09-15T00:38:59.818Z,16.89
2018-09-15T00:39:25.852Z,16.94
2018-09-15T00:39:51.981Z,16.94
2018-09-15T00:40:18.118Z,16.97
2018-09-15T00:40:44.255Z,16.94
2018-09-15T00:41:10.389Z,17.05
2018-09-15T00:41:36.524Z,17.09
2018-09-15T00:42:02.657Z,17.06
2018-09-15T00:42:28.789Z,16.99
2018-09-15T00:42:54.918Z,17.04
2018-09-15T00:43:21.052Z,17.12
2018-09-15T00:43:47.182Z,17.02
2018-09-15T00:44:13.319Z,17.06
2018-09-15T00:44:39.474Z,16.99
2018-09-15T00:45:05.606Z,17.06
2018-09-15T00:45:31.789Z,17.01
2018-09-15T00:45:57.920Z,17.05
2018-09-15T00:46:24.060Z,17.01
2018-09-15T00:46:50.193Z,17.04
2018-09-15T00:47:16.325Z,17.05
2018-09-15T00:47:42.475Z,17.06
2018-09-15T00:48:08.619Z,16.97
2018-09-15T00:48:34.747Z,16.97
2018-09-15T00:49:00.881Z,17.01
2018-09-15T00:49:27.044Z,16.87
2018-09-15T00:49:53.175Z,16.97
2018-09-15T00:50:19.312Z,16.91
2018-09-15T00:50:45.466Z,16.94
2018-09-15T00:51:11.592Z,16.87
2018-09-15T00:51:37.749Z,16.9
2018-09-15T00:52:03.887Z,16.87
2018-09-15T00:52:30.016Z,17.04
2018-09-15T00:52:56.147Z,17.06
2018-09-15T00:53:22.285Z,16.99
2018-09-15T00:53:48.418Z,17.11
2018-09-15T00:54:14.545Z,17.11
2018-09-15T00:54:40.683Z,17.04
2018-09-15T00:55:06.833Z,17.11
2018-09-15T00:55:32.960Z,16.99
2018-09-15T00:55:59.100Z,17.12
2018-09-15T00:56:25.254Z,17.12
2018-09-15T00:56:51.385Z,17.05
2018-09-15T00:57:17.522Z,17.02
2018-09-15T00:57:43.657Z,17.09
2018-09-15T00:58:09.780Z,17.14
2018-09-15T00:58:35.918Z,17.14
2018-09-15T00:59:02.089Z,17.11
2018-09-15T00:59:28.220Z,17.12
2018-09-15T00:59:54.348Z,17.06
2018-09-15T01:00:20.481Z,17.09
2018-09-15T01:00:46.617Z,17.15
2018-09-15T01:01:12.753Z,17.11
2018-09-15T01:01:38.884Z,17.16
2018-09-15T01:02:05.016Z,17.26
2018-09-15T01:02:31.177Z,17.19
2018-09-15T01:02:57.314Z,17.12
2018-09-15T01:03:23.470Z,17.11
2018-09-15T01:03:49.609Z,16.99
2018-09-15T01:04:15.771Z,17.09
2018-09-15T01:04:41.911Z,16.97
2018-09-15T01:05:08.071Z,16.97
2018-09-15T01:05:34.204Z,17.04
2018-09-15T01:06:00.327Z,16.89
2018-09-15T01:06:26.463Z,16.94
2018-09-15T01:06:52.602Z,16.99
2018-09-15T01:07:18.731Z,17.05
2018-09-15T01:07:44.907Z,17.04
2018-09-15T01:08:10.994Z,17.05
2018-09-15T01:08:37.128Z,17.04
2018-09-15T01:09:03.285Z,17.04
2018-09-15T01:09:29.419Z,16.99
2018-09-15T01:09:55.618Z,17.01
2018-09-15T01:10:21.749Z,16.99
2018-09-15T01:10:47.888Z,17.05
2018-09-15T01:11:14.028Z,17.08
2018-09-15T01:11:40.178Z,16.96
2018-09-15T01:12:06.311Z,17.05
2018-09-15T01:12:32.451Z,16.97
2018-09-15T01:12:58.586Z,16.9
2018-09-15T01:13:24.713Z,16.93
2018-09-15T01:13:50.900Z,16.81
2018-09-15T01:14:17.193Z,16.81
2018-09-15T01:14:43.163Z,16.89
2018-09-15T01:15:09.292Z,16.87
2018-09-15T01:15:35.425Z,16.79
2018-09-15T01:16:01.610Z,16.72
2018-09-15T01:16:27.746Z,16.68
2018-09-15T01:16:53.876Z,16.72
2018-09-15T01:17:20.003Z,16.61
2018-09-15T01:17:46.142Z,16.71
2018-09-15T01:18:12.285Z,16.71
2018-09-15T01:18:38.412Z,16.61
2018-09-15T01:19:04.575Z,16.66
2018-09-15T01:19:30.710Z,16.65
2018-09-15T01:19:56.841Z,16.76
2018-09-15T01:20:23.030Z,16.75
2018-09-15T01:20:49.161Z,16.81
2018-09-15T01:21:15.293Z,16.75
2018-09-15T01:21:41.432Z,16.75
2018-09-15T01:22:07.559Z,16.76
2018-09-15T01:22:33.695Z,16.68
2018-09-15T01:22:59.833Z,16.76
2018-09-15T01:23:25.985Z,16.66
2018-09-15T01:23:52.151Z,16.66
2018-09-15T01:24:18.288Z,16.69
2018-09-15T01:24:44.416Z,16.57
2018-09-15T01:25:10.585Z,16.56
2018-09-15T01:25:36.708Z,16.47
2018-09-15T01:26:02.972Z,16.56
2018-09-15T01:26:29.029Z,16.6
2018-09-15T01:26:55.173Z,16.61
2018-09-15T01:27:21.303Z,16.65
2018-09-15T01:27:47.435Z,16.61
2018-09-15T01:28:13.566Z,16.6
2018-09-15T01:28:39.705Z,16.69
2018-09-15T01:29:05.838Z,16.61
2018-09-15T01:29:31.987Z,16.58
2018-09-15T01:29:58.103Z,16.69
2018-09-15T01:30:24.264Z,16.72
2018-09-15T01:30:50.417Z,16.65
2018-09-15T01:31:16.545Z,16.53
2018-09-15T01:31:42.685Z,16.42
2018-09-15T01:32:08.822Z,16.43
2018-09-15T01:32:34.978Z,16.46
2018-09-15T01:33:01.127Z,16.42
2018-09-15T01:33:27.254Z,16.35
2018-09-15T01:33:53.385Z,16.36
2018-09-15T01:34:19.517Z,16.28
2018-09-15T01:34:45.655Z,16.39
2018-09-15T01:35:11.783Z,16.32
2018-09-15T01:35:37.921Z,16.32
2018-09-15T01:36:04.069Z,16.29
2018-09-15T01:36:30.198Z,16.31
2018-09-15T01:36:56.335Z,16.29
2018-09-15T01:37:22.473Z,16.31
2018-09-15T01:37:48.598Z,16.31
2018-09-15T01:38:14.739Z,16.21
2018-09-15T01:38:40.867Z,16.31
2018-09-15T01:39:06.991Z,16.24
2018-09-15T01:39:33.122Z,16.32
2018-09-15T01:39:59.255Z,16.17
2018-09-15T01:40:25.416Z,16.35
2018-09-15T01:40:51.553Z,16.26
2018-09-15T01:41:17.685Z,16.26
2018-09-15T01:41:43.816Z,16.28
2018-09-15T01:42:09.949Z,16.26
2018-09-15T01:42:36.110Z,16.33
2018-09-15T01:43:02.249Z,16.26
2018-09-15T01:43:28.404Z,16.28
2018-09-15T01:43:54.535Z,16.26
2018-09-15T01:44:20.670Z,16.23
2018-09-15T01:44:46.798Z,16.16
2018-09-15T01:45:12.932Z,16.17
2018-09-15T01:45:39.064Z,16.28
2018-09-15T01:46:05.200Z,16.12
2018-09-15T01:46:31.354Z,16.1
2018-09-15T01:46:57.491Z,16.17
2018-09-15T01:47:23.648Z,16.1
2018-09-15T01:47:49.765Z,16.09
2018-09-15T01:48:15.901Z,16.15
2018-09-15T01:48:42.032Z,16.1
2018-09-15T01:49:08.163Z,16.09
2018-09-15T01:49:34.292Z,16.17
2018-09-15T01:50:00.432Z,16.08
2018-09-15T01:50:26.560Z,16.05
2018-09-15T01:50:52.717Z,16
2018-09-15T01:51:18.847Z,16.02
2018-09-15T01:51:44.989Z,16.04
2018-09-15T01:52:11.117Z,16.02
2018-09-15T01:52:37.254Z,16
2018-09-15T01:53:03.387Z,16.01
2018-09-15T01:53:29.513Z,16.02
2018-09-15T01:53:55.641Z,16
2018-09-15T01:54:21.779Z,15.83
2018-09-15T01:54:47.908Z,15.84
2018-09-15T01:55:14.060Z,15.95
2018-09-15T01:55:40.202Z,15.92
2018-09-15T01:56:06.351Z,15.95
2018-09-15T01:56:32.481Z,15.86
2018-09-15T01:56:58.612Z,15.88
2018-09-15T01:57:24.804Z,15.91
2018-09-15T01:57:50.916Z,15.7
2018-09-15T01:58:17.047Z,15.82
2018-09-15T01:58:43.179Z,15.82
2018-09-15T01:59:09.318Z,15.72
2018-09-15T01:59:35.444Z,15.73
2018-09-15T02:00:01.602Z,15.68
2018-09-15T02:00:27.766Z,15.7
2018-09-15T02:00:53.895Z,15.73
2018-09-15T02:01:20.022Z,15.77
2018-09-15T02:01:46.154Z,15.75
2018-09-15T02:02:12.284Z,15.8
2018-09-15T02:02:38.418Z,15.8
2018-09-15T02:03:04.544Z,15.75
2018-09-15T02:03:30.678Z,15.72
2018-09-15T02:03:56.839Z,15.7
2018-09-15T02:04:22.971Z,15.61
2018-09-15T02:04:49.141Z,15.54
2018-09-15T02:05:15.300Z,15.61
2018-09-15T02:05:41.437Z,15.64
2018-09-15T02:06:07.599Z,15.61
2018-09-15T02:06:33.697Z,15.57
2018-09-15T02:06:59.833Z,15.55
2018-09-15T02:07:26.014Z,15.55
2018-09-15T02:07:52.148Z,15.57
2018-09-15T02:08:18.287Z,15.65
2018-09-15T02:08:44.411Z,15.59
2018-09-15T02:09:10.547Z,15.67
2018-09-15T02:09:36.676Z,15.59
2018-09-15T02:10:02.833Z,15.59
2018-09-15T02:10:28.970Z,15.72
2018-09-15T02:10:55.101Z,15.73
2018-09-15T02:11:21.282Z,15.67
2018-09-15T02:11:47.418Z,15.62
2018-09-15T02:12:13.539Z,15.59
2018-09-15T02:12:39.691Z,15.59
2018-09-15T02:13:05.829Z,15.64
2018-09-15T02:13:31.958Z,15.59
2018-09-15T02:13:58.099Z,15.62
2018-09-15T02:14:24.233Z,15.59
2018-09-15T02:14:50.364Z,15.57
2018-09-15T02:15:16.546Z,15.52
2018-09-15T02:15:42.680Z,15.52
2018-09-15T02:16:08.808Z,15.57
2018-09-15T02:16:34.942Z,15.59
2018-09-15T02:17:01.104Z,15.57
2018-09-15T02:17:27.240Z,15.52
2018-09-15T02:17:53.372Z,15.55
2018-09-15T02:18:19.524Z,15.57
2018-09-15T02:18:45.702Z,15.64
2018-09-15T02:19:11.784Z,15.52
2018-09-15T02:19:37.946Z,15.55
2018-09-15T02:20:04.079Z,15.64
2018-09-15T02:20:30.216Z,15.52
2018-09-15T02:20:56.370Z,15.58
2018-09-15T02:21:22.577Z,15.49
2018-09-15T02:21:48.731Z,15.4
2018-09-15T02:22:14.863Z,15.4
2018-09-15T02:22:41.122Z,15.46
2018-09-15T02:23:07.278Z,15.54
2018-09-15T02:23:33.338Z,15.44
2018-09-15T02:23:59.469Z,15.51
2018-09-15T02:24:25.606Z,15.58
2018-09-15T02:24:51.733Z,15.47
2018-09-15T02:25:17.864Z,15.51
2018-09-15T02:25:44.001Z,15.52
2018-09-15T02:26:10.130Z,15.46
2018-09-15T02:26:36.264Z,15.43
2018-09-15T02:27:02.421Z,15.42
2018-09-15T02:27:28.552Z,15.42
2018-09-15T02:27:54.677Z,15.46
2018-09-15T02:28:20.815Z,15.43
2018-09-15T02:28:46.953Z,15.42
2018-09-15T02:29:13.143Z,15.4
2018-09-15T02:29:39.302Z,15.4
2018-09-15T02:30:05.437Z,15.46
2018-09-15T02:30:31.593Z,15.4
2018-09-15T02:30:57.746Z,15.43
2018-09-15T02:31:23.879Z,15.44
2018-09-15T02:31:50.031Z,15.44
2018-09-15T02:32:16.188Z,15.52
2018-09-15T02:32:42.342Z,15.46
2018-09-15T02:33:08.491Z,15.44
2018-09-15T02:33:34.621Z,15.44
2018-09-15T02:34:00.754Z,15.4
2018-09-15T02:34:26.907Z,15.33
2018-09-15T02:34:53.044Z,15.44
2018-09-15T02:35:19.206Z,15.25
2018-09-15T02:35:45.328Z,15.29
2018-09-15T02:36:11.516Z,15.28
2018-09-15T02:36:37.690Z,15.27
2018-09-15T02:37:03.823Z,15.39
2018-09-15T02:37:29.959Z,15.37
2018-09-15T02:37:56.112Z,15.28
2018-09-15T02:38:22.246Z,15.33
2018-09-15T02:38:48.381Z,15.33
2018-09-15T02:39:14.530Z,15.27
2018-09-15T02:39:40.667Z,15.42
2018-09-15T02:40:06.803Z,15.27
2018-09-15T02:40:32.927Z,15.28
2018-09-15T02:40:59.067Z,15.28
2018-09-15T02:41:25.194Z,15.33
2018-09-15T02:41:51.316Z,15.33
2018-09-15T02:42:17.453Z,15.29
2018-09-15T02:42:43.590Z,15.27
2018-09-15T02:43:09.720Z,15.27
2018-09-15T02:43:35.845Z,15.29
2018-09-15T02:44:02.001Z,15.43
2018-09-15T02:44:28.163Z,15.42
2018-09-15T02:44:54.290Z,15.35
2018-09-15T02:45:20.428Z,15.39
2018-09-15T02:45:46.577Z,15.4
2018-09-15T02:46:12.739Z,15.46
2018-09-15T02:46:38.865Z,15.33
2018-09-15T02:47:05.023Z,15.24
2018-09-15T02:47:31.176Z,15.29
2018-09-15T02:47:57.303Z,15.37
2018-09-15T02:48:23.434Z,15.29
2018-09-15T02:48:49.593Z,15.37
2018-09-15T02:49:15.754Z,15.29
2018-09-15T02:49:41.888Z,15.14
2018-09-15T02:50:08.021Z,15.06
2018-09-15T02:50:34.168Z,15.11
2018-09-15T02:51:00.325Z,15.11
2018-09-15T02:51:26.504Z,15.18
2018-09-15T02:51:52.634Z,15.18
2018-09-15T02:52:18.782Z,15.21
2018-09-15T02:52:44.917Z,15.15
2018-09-15T02:53:11.061Z,15.09
2018-09-15T02:53:37.197Z,15.07
2018-09-15T02:54:03.353Z,14.97
2018-09-15T02:54:29.502Z,15.02
2018-09-15T02:54:55.708Z,15.04
2018-09-15T02:55:21.814Z,15.03
2018-09-15T02:55:47.999Z,15.07
2018-09-15T02:56:14.128Z,15.11
2018-09-15T02:56:40.261Z,15.07
2018-09-15T02:57:06.391Z,15.06
2018-09-15T02:57:32.522Z,15.19
2018-09-15T02:57:58.657Z,15.14
2018-09-15T02:58:24.813Z,15.11
2018-09-15T02:58:50.942Z,15.06
2018-09-15T02:59:17.081Z,15
2018-09-15T02:59:43.210Z,15
2018-09-15T03:00:09.346Z,14.99
2018-09-15T03:00:35.478Z,15.03
2018-09-15T03:01:01.636Z,14.99
2018-09-15T03:01:27.807Z,14.91
2018-09-15T03:01:53.982Z,14.88
2018-09-15T03:02:20.132Z,14.92
2018-09-15T03:02:46.289Z,14.94
2018-09-15T03:03:12.424Z,14.96
2018-09-15T03:03:38.604Z,14.97
2018-09-15T03:04:04.764Z,14.92
2018-09-15T03:04:30.912Z,14.89
2018-09-15T03:04:57.065Z,14.96
2018-09-15T03:05:23.217Z,14.96
2018-09-15T03:05:49.354Z,14.88
2018-09-15T03:06:15.486Z,14.89
2018-09-15T03:06:41.627Z,14.89
2018-09-15T03:07:07.753Z,14.94
2018-09-15T03:07:33.885Z,14.86
2018-09-15T03:08:00.043Z,14.81
2018-09-15T03:08:26.220Z,14.89
2018-09-15T03:08:52.346Z,14.82
2018-09-15T03:09:18.505Z,14.84
2018-09-15T03:09:44.665Z,14.7
2018-09-15T03:10:10.811Z,14.82
2018-09-15T03:10:36.977Z,14.86
2018-09-15T03:11:03.074Z,14.84
2018-09-15T03:11:29.236Z,14.84
2018-09-15T03:11:55.391Z,14.86
2018-09-15T03:12:21.551Z,14.72
2018-09-15T03:12:47.704Z,14.84
2018-09-15T03:13:13.865Z,14.84
2018-09-15T03:13:40.009Z,14.84
2018-09-15T03:14:06.149Z,14.96
2018-09-15T03:14:32.303Z,14.92
2018-09-15T03:14:58.469Z,14.81
2018-09-15T03:15:24.618Z,14.85
2018-09-15T03:15:50.758Z,14.91
2018-09-15T03:16:16.879Z,14.89
2018-09-15T03:16:43.038Z,14.85
2018-09-15T03:17:09.169Z,14.86
2018-09-15T03:17:35.311Z,14.89
2018-09-15T03:18:01.433Z,14.92
2018-09-15T03:18:27.570Z,14.77
2018-09-15T03:18:53.727Z,14.81
2018-09-15T03:19:19.907Z,14.7
2018-09-15T03:19:46.037Z,14.78
2018-09-15T03:20:12.196Z,14.82
2018-09-15T03:20:38.363Z,14.81
2018-09-15T03:21:04.490Z,14.97
2018-09-15T03:21:30.681Z,14.88
2018-09-15T03:21:56.813Z,14.84
2018-09-15T03:22:22.994Z,14.84
2018-09-15T03:22:49.126Z,14.92
2018-09-15T03:23:15.306Z,14.82
2018-09-15T03:23:41.392Z,14.81
2018-09-15T03:24:07.551Z,14.82
2018-09-15T03:24:33.710Z,14.72
2018-09-15T03:24:59.841Z,14.84
2018-09-15T03:25:25.973Z,14.68
2018-09-15T03:25:52.131Z,14.72
2018-09-15T03:26:18.272Z,14.7
2018-09-15T03:26:44.400Z,14.79
2018-09-15T03:27:10.551Z,14.89
2018-09-15T03:27:36.691Z,14.72
2018-09-15T03:28:02.817Z,14.85
2018-09-15T03:28:28.956Z,14.78
2018-09-15T03:28:55.094Z,14.68
2018-09-15T03:29:21.223Z,14.63
2018-09-15T03:29:47.383Z,14.68
2018-09-15T03:30:13.535Z,14.77
2018-09-15T03:30:39.729Z,14.66
2018-09-15T03:31:05.920Z,14.66
2018-09-15T03:31:32.076Z,14.7
2018-09-15T03:31:58.276Z,14.72
2018-09-15T03:32:24.483Z,14.65
2018-09-15T03:32:50.611Z,14.82
2018-09-15T03:33:16.748Z,14.73
2018-09-15T03:33:42.896Z,14.73
2018-09-15T03:34:09.052Z,14.77
2018-09-15T03:34:35.183Z,14.72
2018-09-15T03:35:01.316Z,14.73
2018-09-15T03:35:27.450Z,14.73
2018-09-15T03:35:53.595Z,14.73
2018-09-15T03:36:19.740Z,14.84
2018-09-15T03:36:45.867Z,14.77
2018-09-15T03:37:12.001Z,14.78
2018-09-15T03:37:38.162Z,14.69
2018-09-15T03:38:04.287Z,14.72
2018-09-15T03:38:30.425Z,14.85
2018-09-15T03:38:56.551Z,14.79
2018-09-15T03:39:22.727Z,14.84
2018-09-15T03:39:48.923Z,14.72
2018-09-15T03:40:15.071Z,14.7
2018-09-15T03:40:41.205Z,14.81
2018-09-15T03:41:07.332Z,14.72
2018-09-15T03:41:33.605Z,14.81
2018-09-15T03:41:59.695Z,14.82
2018-09-15T03:42:25.803Z,14.78
2018-09-15T03:42:51.955Z,14.82
2018-09-15T03:43:18.086Z,14.68
2018-09-15T03:43:44.220Z,14.72
2018-09-15T03:44:10.350Z,14.7
2018-09-15T03:44:36.502Z,14.73
2018-09-15T03:45:02.639Z,14.73
2018-09-15T03:45:28.771Z,14.72
2018-09-15T03:45:54.908Z,14.72
2018-09-15T03:46:21.044Z,14.73
2018-09-15T03:46:47.203Z,14.63
2018-09-15T03:47:13.335Z,14.65
2018-09-15T03:47:39.484Z,14.69
2018-09-15T03:48:05.642Z,14.6
2018-09-15T03:48:31.819Z,14.63
2018-09-15T03:48:57.950Z,14.6
2018-09-15T03:49:24.092Z,14.62
2018-09-15T03:49:50.278Z,14.65
2018-09-15T03:50:16.413Z,14.6
2018-09-15T03:50:42.545Z,14.53
2018-09-15T03:51:08.668Z,14.6
2018-09-15T03:51:34.821Z,14.65
2018-09-15T03:52:00.958Z,14.51
2018-09-15T03:52:27.097Z,14.47
2018-09-15T03:52:53.226Z,14.51
2018-09-15T03:53:19.377Z,14.5
2018-09-15T03:53:45.536Z,14.53
2018-09-15T03:54:11.668Z,14.55
2018-09-15T03:54:37.798Z,14.6
2018-09-15T03:55:03.979Z,14.5
2018-09-15T03:55:30.117Z,14.5
2018-09-15T03:55:56.238Z,14.58
2018-09-15T03:56:22.396Z,14.53
2018-09-15T03:56:48.556Z,14.55
2018-09-15T03:57:14.731Z,14.59
2018-09-15T03:57:40.893Z,14.53
2018-09-15T03:58:07.023Z,14.47
2018-09-15T03:58:33.201Z,14.53
2018-09-15T03:58:59.376Z,14.5
2018-09-15T03:59:25.583Z,14.51
2018-09-15T03:59:51.665Z,14.5
2018-09-15T04:00:17.780Z,14.47
2018-09-15T04:00:43.909Z,14.63
2018-09-15T04:01:10.067Z,14.68
2018-09-15T04:01:36.225Z,14.55
2018-09-15T04:02:02.384Z,14.7
2018-09-15T04:02:28.513Z,14.69
2018-09-15T04:02:54.675Z,14.7
2018-09-15T04:03:20.806Z,14.68
2018-09-15T04:03:46.955Z,14.6
2018-09-15T04:04:13.115Z,14.7
2018-09-15T04:04:39.246Z,14.65
2018-09-15T04:05:05.401Z,14.66
2018-09-15T04:05:31.561Z,14.62
2018-09-15T04:05:57.729Z,14.55
2018-09-15T04:06:23.852Z,14.62
2018-09-15T04:06:50.006Z,14.66
2018-09-15T04:07:16.165Z,14.66
2018-09-15T04:07:42.294Z,14.6
2018-09-15T04:08:08.468Z,14.78
2018-09-15T04:08:34.629Z,14.69
2018-09-15T04:09:00.777Z,14.77
2018-09-15T04:09:26.911Z,14.7
2018-09-15T04:09:53.053Z,14.84
2018-09-15T04:10:19.198Z,14.85
2018-09-15T04:10:45.337Z,14.82
2018-09-15T04:11:11.460Z,14.73
2018-09-15T04:11:37.593Z,14.79
2018-09-15T04:12:03.725Z,14.73
2018-09-15T04:12:29.873Z,14.69
2018-09-15T04:12:56.059Z,14.62
2018-09-15T04:13:22.198Z,14.68
2018-09-15T04:13:48.381Z,14.69
2018-09-15T04:14:14.510Z,14.81
2018-09-15T04:14:40.645Z,14.59
2018-09-15T04:15:06.779Z,14.58
2018-09-15T04:15:32.934Z,14.5
2018-09-15T04:15:59.091Z,14.47
2018-09-15T04:16:25.217Z,14.43
2018-09-15T04:16:51.378Z,14.43
2018-09-15T04:17:17.527Z,14.44
2018-09-15T04:17:43.658Z,14.41
2018-09-15T04:18:09.792Z,14.4
2018-09-15T04:18:35.944Z,14.45
2018-09-15T04:19:02.137Z,14.43
2018-09-15T04:19:28.237Z,14.33
2018-09-15T04:19:54.393Z,14.37
2018-09-15T04:20:20.529Z,14.3
2018-09-15T04:20:46.702Z,14.35
2018-09-15T04:21:12.860Z,14.33
2018-09-15T04:21:39.007Z,14.3
2018-09-15T04:22:05.139Z,14.33
2018-09-15T04:22:31.323Z,14.26
2018-09-15T04:22:57.450Z,14.3
2018-09-15T04:23:23.628Z,14.33
2018-09-15T04:23:49.783Z,14.28
2018-09-15T04:24:15.938Z,14.33
2018-09-15T04:24:42.093Z,14.3
2018-09-15T04:25:08.241Z,14.23
2018-09-15T04:25:34.403Z,14.2
2018-09-15T04:26:00.533Z,14.28
2018-09-15T04:26:26.715Z,14.11
2018-09-15T04:26:52.893Z,14.17
2018-09-15T04:27:19.018Z,14.18
2018-09-15T04:27:45.160Z,14.2
2018-09-15T04:28:11.316Z,14.25
2018-09-15T04:28:37.640Z,14.3
2018-09-15T04:29:03.688Z,14.26
2018-09-15T04:29:29.821Z,14.25
2018-09-15T04:29:55.951Z,14.26
2018-09-15T04:30:22.109Z,14.1
2018-09-15T04:30:48.248Z,14.1
2018-09-15T04:31:14.375Z,14.2
2018-09-15T04:31:40.509Z,14.15
2018-09-15T04:32:06.638Z,14.25
2018-09-15T04:32:32.775Z,14.23
2018-09-15T04:32:58.939Z,14.26
2018-09-15T04:33:25.069Z,14.2
2018-09-15T04:33:51.201Z,14.28
2018-09-15T04:34:17.362Z,14.18
2018-09-15T04:34:43.518Z,14.29
2018-09-15T04:35:09.651Z,14.29
2018-09-15T04:35:35.811Z,14.37
2018-09-15T04:36:01.965Z,14.3
2018-09-15T04:36:28.102Z,14.33
2018-09-15T04:36:54.263Z,14.33
2018-09-15T04:37:20.396Z,14.18
2018-09-15T04:37:46.530Z,14.29
2018-09-15T04:38:12.667Z,14.29
2018-09-15T04:38:38.792Z,14.2
2018-09-15T04:39:04.922Z,14.3
2018-09-15T04:39:31.078Z,14.28
2018-09-15T04:39:57.228Z,14.26
2018-09-15T04:40:23.359Z,14.3
2018-09-15T04:40:49.490Z,14.33
2018-09-15T04:41:15.627Z,14.36
2018-09-15T04:41:41.961Z,14.4
2018-09-15T04:42:07.981Z,14.37
2018-09-15T04:42:34.111Z,14.33
2018-09-15T04:43:00.259Z,14.33
2018-09-15T04:43:26.444Z,14.28
2018-09-15T04:43:52.597Z,14.23
2018-09-15T04:44:18.730Z,14.2
2018-09-15T04:44:44.906Z,14.32
2018-09-15T04:45:11.037Z,14.3
2018-09-15T04:45:37.160Z,14.33
2018-09-15T04:46:03.292Z,14.29
2018-09-15T04:46:29.449Z,14.25
2018-09-15T04:46:55.579Z,14.22
2018-09-15T04:47:21.740Z,14.4
2018-09-15T04:47:47.876Z,14.4
2018-09-15T04:48:14.063Z,14.26
2018-09-15T04:48:40.228Z,14.29
2018-09-15T04:49:06.359Z,14.37
2018-09-15T04:49:32.498Z,14.29
2018-09-15T04:49:58.659Z,14.32
2018-09-15T04:50:24.793Z,14.3
2018-09-15T04:50:50.951Z,14.28
2018-09-15T04:51:17.079Z,14.29
2018-09-15T04:51:43.211Z,14.37
2018-09-15T04:52:09.353Z,14.4
2018-09-15T04:52:35.552Z,14.35
2018-09-15T04:53:01.661Z,14.37
2018-09-15T04:53:27.812Z,14.36
2018-09-15T04:53:53.939Z,14.36
2018-09-15T04:54:20.062Z,14.35
2018-09-15T04:54:46.194Z,14.29
2018-09-15T04:55:12.325Z,14.22
2018-09-15T04:55:38.460Z,14.26
2018-09-15T04:56:04.631Z,14.15
2018-09-15T04:56:30.763Z,14.28
2018-09-15T04:56:56.965Z,14.23
2018-09-15T04:57:23.125Z,14.17
2018-09-15T04:57:49.253Z,14.23
2018-09-15T04:58:15.418Z,14.28
2018-09-15T04:58:41.660Z,14.2
2018-09-15T04:59:07.735Z,14.29
2018-09-15T04:59:33.864Z,14.23
2018-09-15T04:59:59.997Z,14.25
2018-09-15T05:00:26.133Z,14.18
2018-09-15T05:00:52.279Z,14.28
2018-09-15T05:01:18.417Z,14.25
2018-09-15T05:01:44.544Z,14.23
2018-09-15T05:02:10.707Z,14.3
2018-09-15T05:02:36.843Z,14.22
2018-09-15T05:03:02.973Z,14.28
2018-09-15T05:03:29.108Z,14.36
2018-09-15T05:03:55.243Z,14.4
2018-09-15T05:04:21.378Z,14.33
2018-09-15T05:04:47.530Z,14.32
2018-09-15T05:05:13.665Z,14.35
2018-09-15T05:05:39.801Z,14.2
2018-09-15T05:06:05.950Z,14.23
2018-09-15T05:06:32.102Z,14.23
2018-09-15T05:06:58.214Z,14.32
2018-09-15T05:07:24.351Z,14.3
2018-09-15T05:07:50.483Z,14.36
2018-09-15T05:08:16.613Z,14.37
2018-09-15T05:08:42.774Z,14.32
2018-09-15T05:09:08.901Z,14.33
2018-09-15T05:09:35.026Z,14.4
2018-09-15T05:10:01.159Z,14.33
2018-09-15T05:10:27.295Z,14.35
2018-09-15T05:10:53.428Z,14.32
2018-09-15T05:11:19.581Z,14.32
2018-09-15T05:11:45.713Z,14.3
2018-09-15T05:12:11.872Z,14.33
2018-09-15T05:12:38.148Z,14.36
2018-09-15T05:13:04.208Z,14.33
2018-09-15T05:13:30.341Z,14.29
2018-09-15T05:13:56.469Z,14.29
2018-09-15T05:14:22.604Z,14.22
2018-09-15T05:14:48.736Z,14.17
2018-09-15T05:15:14.896Z,14.15
2018-09-15T05:15:41.031Z,14.23
2018-09-15T05:16:07.168Z,14.26
2018-09-15T05:16:33.323Z,14.17
2018-09-15T05:16:59.444Z,14.23
2018-09-15T05:17:25.579Z,14.22
2018-09-15T05:17:51.707Z,14.23
2018-09-15T05:18:17.867Z,14.33
2018-09-15T05:18:43.995Z,14.3
2018-09-15T05:19:10.149Z,14.37
2018-09-15T05:19:36.275Z,14.26
2018-09-15T05:20:02.410Z,14.22
2018-09-15T05:20:28.539Z,14.26
2018-09-15T05:20:54.671Z,14.25
2018-09-15T05:21:20.800Z,14.28
2018-09-15T05:21:46.938Z,14.32
2018-09-15T05:22:13.070Z,14.3
2018-09-15T05:22:39.206Z,14.26
2018-09-15T05:23:05.389Z,14.4
2018-09-15T05:23:31.523Z,14.29
2018-09-15T05:23:57.648Z,14.32
2018-09-15T05:24:23.783Z,14.17
2018-09-15T05:24:49.916Z,14.28
2018-09-15T05:25:16.055Z,14.28
2018-09-15T05:25:42.184Z,14.26
2018-09-15T05:26:08.315Z,14.32
2018-09-15T05:26:34.468Z,14.32
2018-09-15T05:27:00.596Z,14.36
2018-09-15T05:27:26.723Z,14.26
2018-09-15T05:27:52.886Z,14.23
2018-09-15T05:28:19.023Z,14.3
2018-09-15T05:28:45.151Z,14.37
2018-09-15T05:29:11.313Z,14.32
2018-09-15T05:29:37.468Z,14.23
2018-09-15T05:30:03.623Z,14.23
2018-09-15T05:30:29.754Z,14.36
2018-09-15T05:30:55.884Z,14.18
2018-09-15T05:31:22.022Z,14.26
2018-09-15T05:31:48.178Z,14.37
2018-09-15T05:32:14.304Z,14.33
2018-09-15T05:32:40.462Z,14.37
2018-09-15T05:33:06.646Z,14.2
2018-09-15T05:33:32.747Z,14.22
2018-09-15T05:33:58.885Z,14.15
2018-09-15T05:34:25.014Z,14.15
2018-09-15T05:34:51.151Z,14.25
2018-09-15T05:35:17.282Z,14.12
2018-09-15T05:35:43.435Z,14.18
2018-09-15T05:36:09.576Z,14.11
2018-09-15T05:36:35.709Z,14.18
2018-09-15T05:37:01.861Z,14.26
2018-09-15T05:37:27.991Z,14.2
2018-09-15T05:37:54.160Z,14.22